createdAt,value
2019-03-21T00:01:58.484Z,28.63
2019-03-21T00:04:25.053Z,29.47
2019-03-21T00:06:51.642Z,25.07
2019-03-21T00:09:18.259Z,25.57
2019-03-21T00:11:44.852Z,25.50
2019-03-21T00:14:11.426Z,26.43
2019-03-21T00:16:38.029Z,26.63
2019-03-21T00:19:04.606Z,22.10
2019-03-21T00:21:31.210Z,26.33
2019-03-21T00:23:57.779Z,25.13
2019-03-21T00:26:24.354Z,23.00
2019-03-21T00:28:50.930Z,25.90
2019-03-21T00:31:17.498Z,23.00
2019-03-21T00:33:44.073Z,26.57
2019-03-21T00:36:10.644Z,24.73
2019-03-21T00:38:37.218Z,24.20
2019-03-21T00:41:03.789Z,26.17
2019-03-21T00:43:30.364Z,25.87
2019-03-21T00:45:56.954Z,23.33
2019-03-21T00:48:23.505Z,27.40
2019-03-21T00:50:50.077Z,23.97
2019-03-21T00:53:16.666Z,24.10
2019-03-21T00:55:43.245Z,24.40
2019-03-21T00:58:09.833Z,23.30
2019-03-21T01:00:36.481Z,22.83
2019-03-21T01:03:03.825Z,24.17
2019-03-21T01:05:30.625Z,23.07
2019-03-21T01:07:57.238Z,22.80
2019-03-21T01:10:23.806Z,22.10
2019-03-21T01:12:50.412Z,21.83
2019-03-21T01:15:16.975Z,24.20
2019-03-21T01:17:43.590Z,22.53
2019-03-21T01:20:10.237Z,24.23
2019-03-21T01:22:36.867Z,22.33
2019-03-21T01:25:03.437Z,20.87
2019-03-21T01:27:30.036Z,20.93
2019-03-21T01:29:56.610Z,20.57
2019-03-21T01:32:23.214Z,22.83
2019-03-21T01:34:49.793Z,23.93
2019-03-21T01:37:16.406Z,18.23
2019-03-21T01:39:42.990Z,20.33
2019-03-21T01:42:09.587Z,20.97
2019-03-21T01:44:41.014Z,20.60
2019-03-21T01:47:04.510Z,19.03
2019-03-21T01:49:31.088Z,20.30
2019-03-21T01:51:57.667Z,22.53
2019-03-21T01:54:24.242Z,19.87
2019-03-21T01:56:50.814Z,20.07
2019-03-21T01:59:17.393Z,20.37
2019-03-21T02:01:43.964Z,20.70
2019-03-21T02:04:10.571Z,21.03
2019-03-21T02:06:37.198Z,20.07
2019-03-21T02:09:03.781Z,21.13
2019-03-21T02:11:30.363Z,23.03
2019-03-21T02:13:56.950Z,18.77
2019-03-21T02:16:23.533Z,19.77
2019-03-21T02:18:50.182Z,20.53
2019-03-21T02:21:16.768Z,19.93
2019-03-21T02:23:43.342Z,20.00
2019-03-21T02:26:09.918Z,18.60
2019-03-21T02:28:36.609Z,20.30
2019-03-21T02:31:03.182Z,19.90
2019-03-21T02:33:29.756Z,19.27
2019-03-21T02:35:56.338Z,20.20
2019-03-21T02:38:22.915Z,19.60
2019-03-21T02:40:49.498Z,19.83
2019-03-21T02:43:16.080Z,19.70
2019-03-21T02:45:42.660Z,19.27
2019-03-21T02:48:09.234Z,19.20
2019-03-21T02:50:35.804Z,20.87
2019-03-21T02:53:02.441Z,19.43
2019-03-21T02:55:29.079Z,19.93
2019-03-21T02:57:55.688Z,19.67
2019-03-21T03:00:22.258Z,20.57
2019-03-21T03:02:48.865Z,17.97
2019-03-21T03:05:15.458Z,16.87
2019-03-21T03:07:42.124Z,17.37
2019-03-21T03:10:08.698Z,18.67
2019-03-21T03:12:35.283Z,18.63
2019-03-21T03:15:01.864Z,19.63
2019-03-21T03:17:28.442Z,21.07
2019-03-21T03:19:55.018Z,19.83
2019-03-21T03:22:21.661Z,21.23
2019-03-21T03:24:48.265Z,19.03
2019-03-21T03:27:14.848Z,16.90
2019-03-21T03:29:41.424Z,19.70
2019-03-21T03:32:07.999Z,17.03
2019-03-21T03:34:34.589Z,21.20
2019-03-21T03:37:01.148Z,20.67
2019-03-21T03:39:27.720Z,18.00
2019-03-21T03:41:54.288Z,20.33
2019-03-21T03:44:20.861Z,18.43
2019-03-21T03:46:47.434Z,19.17
2019-03-21T03:49:13.998Z,18.67
2019-03-21T03:51:40.575Z,16.73
2019-03-21T03:54:07.150Z,17.53
2019-03-21T03:56:33.721Z,15.43
2019-03-21T03:59:00.301Z,16.97
2019-03-21T04:01:26.883Z,15.10
2019-03-21T04:03:53.461Z,15.83
2019-03-21T04:06:20.037Z,15.73
2019-03-21T04:08:46.610Z,16.57
2019-03-21T04:11:13.192Z,15.50
2019-03-21T04:13:39.796Z,16.17
2019-03-21T04:16:06.373Z,13.53
2019-03-21T04:18:32.992Z,16.50
2019-03-21T04:20:59.584Z,16.67
2019-03-21T04:23:26.202Z,15.87
2019-03-21T04:25:52.791Z,16.07
2019-03-21T04:28:19.401Z,15.13
2019-03-21T04:30:46.013Z,15.30
2019-03-21T04:33:12.786Z,14.33
2019-03-21T04:35:39.351Z,15.53
2019-03-21T04:38:05.996Z,15.00
2019-03-21T04:40:32.585Z,13.87
2019-03-21T04:42:59.178Z,14.37
2019-03-21T04:45:25.751Z,15.53
2019-03-21T04:47:52.329Z,15.47
2019-03-21T04:50:18.905Z,16.43
2019-03-21T04:52:45.486Z,13.27
2019-03-21T04:55:12.068Z,14.70
2019-03-21T04:57:38.666Z,14.07
2019-03-21T05:00:05.249Z,13.80
2019-03-21T05:02:31.825Z,14.47
2019-03-21T05:04:58.405Z,15.63
2019-03-21T05:07:24.983Z,16.73
2019-03-21T05:09:51.565Z,15.80
2019-03-21T05:12:18.142Z,15.27
2019-03-21T05:14:44.739Z,13.53
2019-03-21T05:17:11.302Z,14.93
2019-03-21T05:19:37.888Z,12.83
2019-03-21T05:22:04.455Z,13.33
2019-03-21T05:24:31.046Z,14.53
2019-03-21T05:26:57.632Z,13.23
2019-03-21T05:29:24.234Z,15.40
2019-03-21T05:31:50.802Z,14.70
2019-03-21T05:34:17.390Z,13.40
2019-03-21T05:36:43.953Z,12.70
2019-03-21T05:39:10.564Z,14.60
2019-03-21T05:41:37.132Z,14.30
2019-03-21T05:44:03.709Z,13.87
2019-03-21T05:46:30.286Z,14.03
2019-03-21T05:48:56.868Z,14.17
2019-03-21T05:51:23.437Z,14.40
2019-03-21T05:53:50.092Z,13.60
2019-03-21T05:56:16.664Z,14.77
2019-03-21T05:58:43.235Z,15.07
2019-03-21T06:01:09.838Z,14.23
2019-03-21T06:03:36.408Z,14.17
2019-03-21T06:06:02.992Z,14.93
2019-03-21T06:08:29.566Z,15.13
2019-03-21T06:10:56.146Z,16.83
2019-03-21T06:13:22.737Z,17.07
2019-03-21T06:15:49.311Z,18.97
2019-03-21T06:18:15.895Z,21.05
2019-03-21T06:20:42.469Z,20.50
2019-03-21T06:23:09.055Z,27.97
2019-03-21T06:25:35.637Z,23.10
2019-03-21T06:28:02.216Z,25.27
2019-03-21T06:30:28.799Z,20.07
2019-03-21T06:32:55.381Z,19.17
2019-03-21T06:35:21.953Z,19.17
2019-03-21T06:37:48.532Z,18.42
2019-03-21T06:40:15.114Z,17.23
2019-03-21T06:42:41.687Z,19.00
2019-03-21T06:45:08.265Z,14.78
2019-03-21T06:47:34.847Z,13.40
2019-03-21T06:50:01.419Z,15.13
2019-03-21T06:52:27.998Z,11.83
2019-03-21T06:54:54.579Z,12.50
2019-03-21T06:57:21.158Z,14.13
2019-03-21T06:59:47.736Z,14.23
2019-03-21T07:02:14.312Z,11.70
2019-03-21T07:04:40.932Z,12.05
2019-03-21T07:07:08.579Z,13.35
2019-03-21T07:09:35.460Z,13.05
2019-03-21T07:12:02.056Z,12.53
2019-03-21T07:14:28.639Z,11.75
2019-03-21T07:17:00.254Z,12.65
2019-03-21T07:19:24.034Z,11.33
2019-03-21T07:21:50.649Z,12.75
2019-03-21T07:24:17.226Z,12.75
2019-03-21T07:26:43.841Z,12.15
2019-03-21T07:29:10.413Z,11.55
2019-03-21T07:31:37.006Z,13.48
2019-03-21T07:34:03.578Z,13.65
2019-03-21T07:36:30.193Z,12.60
2019-03-21T07:38:56.763Z,14.75
2019-03-21T07:41:23.373Z,14.40
2019-03-21T07:43:49.955Z,12.68
2019-03-21T07:46:16.550Z,12.90
2019-03-21T07:48:43.127Z,12.55
2019-03-21T07:51:09.745Z,14.33
2019-03-21T07:53:36.328Z,12.68
2019-03-21T07:56:02.914Z,12.37
2019-03-21T07:58:29.519Z,12.18
2019-03-21T08:00:56.136Z,12.55
2019-03-21T08:03:22.717Z,11.63
2019-03-21T08:05:49.433Z,9.23
2019-03-21T08:08:16.014Z,10.48
2019-03-21T08:10:42.630Z,10.35
2019-03-21T08:13:09.209Z,9.73
2019-03-21T08:15:37.832Z,10.63
2019-03-21T08:18:04.208Z,9.25
2019-03-21T08:20:30.825Z,8.63
2019-03-21T08:22:57.400Z,9.90
2019-03-21T08:25:24.012Z,9.55
2019-03-21T08:27:51.838Z,8.80
2019-03-21T08:30:18.673Z,8.90
2019-03-21T08:32:45.244Z,10.95
2019-03-21T08:35:11.818Z,11.12
2019-03-21T08:37:38.398Z,9.50
2019-03-21T08:40:04.984Z,9.58
2019-03-21T08:42:31.559Z,8.40
2019-03-21T08:44:58.128Z,9.70
2019-03-21T08:47:24.708Z,9.43
2019-03-21T08:49:51.295Z,10.43
2019-03-21T08:52:17.887Z,8.30
2019-03-21T08:54:44.450Z,9.35
2019-03-21T08:57:11.054Z,8.98
2019-03-21T08:59:37.675Z,9.80
2019-03-21T09:02:04.258Z,9.15
2019-03-21T09:04:30.828Z,8.83
2019-03-21T09:06:57.408Z,9.00
2019-03-21T09:09:23.989Z,7.40
2019-03-21T09:11:50.561Z,8.30
2019-03-21T09:14:17.145Z,7.17
2019-03-21T09:16:43.737Z,7.53
2019-03-21T09:19:10.305Z,7.85
2019-03-21T09:21:36.962Z,8.13
2019-03-21T09:24:03.542Z,7.40
2019-03-21T09:26:30.162Z,7.53
2019-03-21T09:28:56.749Z,6.90
2019-03-21T09:31:23.361Z,6.72
2019-03-21T09:33:49.951Z,9.03
2019-03-21T09:36:16.564Z,11.50
2019-03-21T09:38:43.141Z,8.25
2019-03-21T09:41:09.761Z,8.05
2019-03-21T09:43:36.355Z,9.70
2019-03-21T09:46:02.935Z,8.50
2019-03-21T09:48:29.513Z,6.95
2019-03-21T09:50:56.163Z,11.33
2019-03-21T09:53:22.740Z,10.48
2019-03-21T09:55:49.313Z,9.80
2019-03-21T09:58:15.898Z,9.55
2019-03-21T10:00:42.472Z,8.35
2019-03-21T10:03:09.047Z,8.35
2019-03-21T10:05:35.616Z,8.00
2019-03-21T10:08:02.189Z,9.08
2019-03-21T10:10:28.782Z,8.18
2019-03-21T10:12:55.678Z,8.95
2019-03-21T10:15:22.418Z,9.03
2019-03-21T10:17:49.021Z,8.00
2019-03-21T10:20:15.595Z,10.50
2019-03-21T10:22:42.206Z,12.10
2019-03-21T10:25:08.791Z,9.78
2019-03-21T10:27:35.408Z,8.60
2019-03-21T10:30:01.988Z,7.85
2019-03-21T10:32:28.705Z,8.00
2019-03-21T10:34:55.277Z,9.33
2019-03-21T10:37:21.893Z,9.43
2019-03-21T10:39:48.525Z,7.97
2019-03-21T10:42:15.155Z,8.90
2019-03-21T10:44:41.714Z,9.10
2019-03-21T10:47:08.340Z,9.70
2019-03-21T10:49:34.926Z,8.73
2019-03-21T10:52:01.545Z,9.73
2019-03-21T10:54:28.118Z,9.90
2019-03-21T10:56:54.717Z,10.00
2019-03-21T10:59:21.363Z,9.73
2019-03-21T11:01:47.958Z,8.95
2019-03-21T11:04:14.565Z,9.05
2019-03-21T11:06:41.170Z,12.07
2019-03-21T11:09:07.759Z,10.15
2019-03-21T11:11:34.374Z,10.48
2019-03-21T11:14:00.958Z,10.23
2019-03-21T11:16:27.533Z,10.65
2019-03-21T11:18:54.120Z,11.18
2019-03-21T11:21:20.697Z,10.68
2019-03-21T11:23:47.268Z,17.70
2019-03-21T11:26:13.844Z,16.73
2019-03-21T11:28:40.416Z,11.88
2019-03-21T11:31:06.990Z,11.30
2019-03-21T11:33:33.570Z,12.00
2019-03-21T11:36:00.158Z,13.62
2019-03-21T11:38:26.737Z,13.28
2019-03-21T11:40:53.327Z,12.25
2019-03-21T11:43:19.913Z,13.62
2019-03-21T11:45:47.779Z,12.15
2019-03-21T11:48:14.722Z,11.57
2019-03-21T11:50:41.301Z,11.95
2019-03-21T11:53:07.876Z,13.10
2019-03-21T11:55:34.453Z,13.00
2019-03-21T11:58:01.026Z,15.35
2019-03-21T12:00:27.621Z,14.47
2019-03-21T12:02:54.183Z,14.07
2019-03-21T12:05:20.768Z,14.83
2019-03-21T12:07:47.339Z,13.60
2019-03-21T12:10:13.922Z,13.93
2019-03-21T12:12:40.511Z,13.85
2019-03-21T12:15:07.100Z,14.53
2019-03-21T12:17:33.684Z,13.55
2019-03-21T12:20:00.453Z,12.15
2019-03-21T12:22:30.295Z,13.53
2019-03-21T12:24:56.219Z,13.20
2019-03-21T12:27:22.822Z,14.63
2019-03-21T12:29:49.403Z,12.98
2019-03-21T12:32:16.014Z,11.80
2019-03-21T12:34:42.603Z,14.07
2019-03-21T12:37:09.213Z,13.62
2019-03-21T12:39:35.793Z,11.60
2019-03-21T12:42:02.367Z,13.28
2019-03-21T12:44:28.950Z,12.40
2019-03-21T12:46:55.529Z,12.70
2019-03-21T12:49:22.106Z,12.50
2019-03-21T12:51:48.688Z,12.45
2019-03-21T12:54:15.263Z,13.40
2019-03-21T12:56:41.833Z,14.80
2019-03-21T12:59:08.409Z,17.25
2019-03-21T13:01:34.991Z,15.08
2019-03-21T13:04:01.583Z,13.60
2019-03-21T13:06:28.164Z,12.30
2019-03-21T13:08:54.736Z,14.40
2019-03-21T13:11:21.406Z,13.75
2019-03-21T13:13:47.993Z,14.60
2019-03-21T13:16:14.576Z,15.98
2019-03-21T13:18:41.163Z,14.75
2019-03-21T13:21:07.752Z,14.55
2019-03-21T13:23:34.367Z,14.10
2019-03-21T13:26:00.949Z,14.58
2019-03-21T13:28:27.554Z,13.13
2019-03-21T13:30:54.137Z,14.25
2019-03-21T13:33:20.744Z,15.95
2019-03-21T13:35:47.320Z,17.40
2019-03-21T13:38:13.970Z,17.75
2019-03-21T13:40:40.551Z,15.68
2019-03-21T13:43:07.181Z,16.27
2019-03-21T13:45:33.772Z,13.85
2019-03-21T13:48:00.536Z,12.55
2019-03-21T13:50:27.149Z,16.05
2019-03-21T13:53:04.221Z,14.65
2019-03-21T13:55:22.085Z,16.15
2019-03-21T13:57:48.705Z,15.72
2019-03-21T14:00:15.274Z,18.35
2019-03-21T14:02:41.867Z,20.17
2019-03-21T14:05:08.444Z,18.80
2019-03-21T14:07:35.032Z,17.17
2019-03-21T14:10:01.611Z,16.77
2019-03-21T14:12:28.273Z,15.63
2019-03-21T14:14:54.845Z,15.58
2019-03-21T14:17:22.323Z,13.45
2019-03-21T14:19:49.076Z,13.38
2019-03-21T14:22:15.695Z,14.38
2019-03-21T14:24:42.286Z,12.00
2019-03-21T14:27:08.865Z,13.35
2019-03-21T14:29:35.491Z,14.25
2019-03-21T14:32:02.069Z,14.20
2019-03-21T14:34:28.683Z,13.20
2019-03-21T14:36:55.258Z,13.00
2019-03-21T14:39:21.838Z,14.70
2019-03-21T14:41:48.424Z,15.72
2019-03-21T14:44:15.015Z,15.80
2019-03-21T14:46:41.597Z,14.30
2019-03-21T14:49:08.167Z,12.60
2019-03-21T14:51:34.745Z,13.93
2019-03-21T14:54:01.326Z,10.10
2019-03-21T14:56:27.898Z,11.55
2019-03-21T14:58:54.517Z,11.85
2019-03-21T15:01:21.141Z,11.95
2019-03-21T15:03:47.826Z,13.03
2019-03-21T15:06:14.401Z,13.45
2019-03-21T15:08:41.022Z,11.68
2019-03-21T15:11:16.508Z,11.60
2019-03-21T15:13:36.081Z,13.25
2019-03-21T15:16:03.160Z,12.98
2019-03-21T15:18:29.781Z,12.55
2019-03-21T15:20:56.346Z,11.45
2019-03-21T15:23:25.687Z,12.60
2019-03-21T15:25:51.351Z,14.43
2019-03-21T15:28:17.928Z,13.72
2019-03-21T15:30:44.535Z,13.38
2019-03-21T15:33:11.160Z,14.03
2019-03-21T15:35:37.743Z,13.83
2019-03-21T15:38:04.424Z,17.45
2019-03-21T15:40:30.994Z,16.23
2019-03-21T15:42:57.576Z,16.00
2019-03-21T15:45:24.272Z,13.58
2019-03-21T15:47:50.930Z,13.53
2019-03-21T15:50:17.526Z,14.53
2019-03-21T15:52:44.102Z,15.58
2019-03-21T15:55:10.739Z,16.57
2019-03-21T15:57:37.309Z,19.80
2019-03-21T16:00:03.930Z,20.55
2019-03-21T16:02:30.504Z,29.30
2019-03-21T16:04:57.102Z,19.30
2019-03-21T16:07:23.675Z,21.75
2019-03-21T16:09:50.303Z,18.17
2019-03-21T16:12:16.987Z,15.83
2019-03-21T16:14:43.595Z,14.60
2019-03-21T16:17:10.166Z,14.30
2019-03-21T16:19:36.781Z,15.63
2019-03-21T16:22:03.360Z,15.30
2019-03-21T16:24:29.968Z,15.75
2019-03-21T16:26:56.553Z,14.63
2019-03-21T16:29:23.158Z,16.30
2019-03-21T16:31:49.742Z,15.58
2019-03-21T16:34:16.358Z,15.98
2019-03-21T16:36:42.937Z,15.90
2019-03-21T16:39:09.547Z,14.63
2019-03-21T16:41:36.194Z,15.32
2019-03-21T16:44:02.805Z,14.40
2019-03-21T16:46:29.388Z,14.73
2019-03-21T16:48:56.012Z,13.25
2019-03-21T16:51:22.594Z,12.40
2019-03-21T16:53:57.292Z,15.10
2019-03-21T16:56:23.874Z,14.93
2019-03-21T16:58:50.442Z,15.03
2019-03-21T17:01:17.020Z,15.10
2019-03-21T17:03:43.597Z,15.63
2019-03-21T17:06:10.187Z,17.30
2019-03-21T17:08:36.766Z,16.60
2019-03-21T17:11:03.406Z,15.80
2019-03-21T17:13:29.992Z,14.18
2019-03-21T17:15:56.565Z,17.50
2019-03-21T17:18:23.142Z,17.30
2019-03-21T17:20:49.805Z,17.40
2019-03-21T17:23:16.434Z,20.50
2019-03-21T17:25:43.157Z,21.05
2019-03-21T17:28:09.741Z,24.90
2019-03-21T17:30:36.327Z,27.02
2019-03-21T17:33:02.907Z,32.63
2019-03-21T17:35:29.481Z,32.67
2019-03-21T17:37:56.065Z,31.00
2019-03-21T17:40:22.649Z,27.95
2019-03-21T17:42:49.219Z,26.17
2019-03-21T17:45:15.800Z,23.42
2019-03-21T17:47:42.379Z,22.80
2019-03-21T17:50:08.953Z,22.90
2019-03-21T17:52:35.549Z,24.52
2019-03-21T17:55:02.123Z,26.00
2019-03-21T17:57:34.469Z,25.50
2019-03-21T17:59:57.009Z,24.10
2019-03-21T18:02:23.588Z,25.40
2019-03-21T18:04:50.226Z,27.85
2019-03-21T18:07:16.826Z,28.38
2019-03-21T18:09:43.447Z,30.57
2019-03-21T18:12:10.284Z,33.02
2019-03-21T18:14:37.033Z,30.48
2019-03-21T18:17:03.620Z,34.40
2019-03-21T18:19:30.215Z,39.48
2019-03-21T18:21:56.795Z,39.78
2019-03-21T18:24:23.373Z,38.53
2019-03-21T18:26:49.956Z,37.17
2019-03-21T18:29:16.548Z,38.73
2019-03-21T18:31:43.125Z,35.65
2019-03-21T18:34:09.711Z,36.55
2019-03-21T18:36:36.323Z,36.03
2019-03-21T18:39:02.912Z,36.40
2019-03-21T18:41:29.517Z,36.30
2019-03-21T18:43:56.084Z,38.88
2019-03-21T18:46:22.713Z,36.60
2019-03-21T18:48:49.294Z,41.30
2019-03-21T18:51:16.005Z,40.08
2019-03-21T18:53:42.581Z,44.40
2019-03-21T18:56:09.656Z,48.38
2019-03-21T18:58:36.450Z,48.17
2019-03-21T19:01:03.099Z,52.15
2019-03-21T19:03:29.693Z,52.83
2019-03-21T19:05:56.296Z,51.63
2019-03-21T19:08:23.202Z,47.25
2019-03-21T19:10:49.946Z,48.45
2019-03-21T19:13:16.526Z,50.78
2019-03-21T19:15:43.151Z,51.77
2019-03-21T19:18:09.728Z,50.28
2019-03-21T19:20:36.348Z,46.63
2019-03-21T19:23:02.922Z,55.03
2019-03-21T19:25:29.543Z,49.95
2019-03-21T19:27:56.130Z,53.35
2019-03-21T19:30:22.755Z,51.15
2019-03-21T19:32:49.334Z,51.68
2019-03-21T19:35:15.969Z,53.75
2019-03-21T19:37:42.556Z,47.45
2019-03-21T19:40:09.173Z,44.67
2019-03-21T19:42:35.746Z,43.35
2019-03-21T19:45:02.325Z,40.65
2019-03-21T19:47:30.527Z,41.85
2019-03-21T19:49:57.265Z,38.67
2019-03-21T19:52:23.849Z,34.10
2019-03-21T19:54:50.424Z,31.17
2019-03-21T19:57:17.011Z,28.67
2019-03-21T19:59:43.592Z,31.33
2019-03-21T20:02:10.176Z,29.15
2019-03-21T20:04:36.757Z,28.98
2019-03-21T20:07:03.342Z,28.90
2019-03-21T20:09:29.924Z,30.15
2019-03-21T20:11:56.500Z,28.77
2019-03-21T20:14:23.082Z,26.65
2019-03-21T20:16:49.664Z,31.42
2019-03-21T20:19:16.251Z,28.98
2019-03-21T20:21:47.818Z,31.05
2019-03-21T20:24:11.149Z,30.32
2019-03-21T20:26:37.853Z,31.85
2019-03-21T20:29:04.446Z,31.62
2019-03-21T20:31:31.026Z,34.80
2019-03-21T20:33:57.683Z,31.40
2019-03-21T20:36:24.262Z,29.45
2019-03-21T20:38:50.843Z,27.62
2019-03-21T20:41:17.452Z,31.33
2019-03-21T20:43:44.030Z,28.20
2019-03-21T20:46:10.614Z,30.12
2019-03-21T20:48:37.211Z,31.42
2019-03-21T20:51:03.803Z,30.82
2019-03-21T20:53:30.385Z,33.10
2019-03-21T20:55:57.000Z,30.12
2019-03-21T20:58:23.586Z,30.85
2019-03-21T21:00:50.275Z,31.12
2019-03-21T21:03:16.847Z,31.07
2019-03-21T21:05:43.433Z,31.12
2019-03-21T21:08:10.082Z,30.70
2019-03-21T21:10:36.657Z,35.25
2019-03-21T21:13:03.226Z,31.35
2019-03-21T21:15:29.806Z,32.00
2019-03-21T21:17:56.427Z,33.18
2019-03-21T21:20:22.997Z,30.25
2019-03-21T21:22:49.596Z,30.15
2019-03-21T21:25:16.173Z,32.33
2019-03-21T21:27:49.310Z,32.20
2019-03-21T21:30:11.093Z,32.35
2019-03-21T21:32:37.711Z,32.45
2019-03-21T21:35:04.285Z,31.37
2019-03-21T21:37:30.962Z,31.15
2019-03-21T21:39:57.577Z,33.53
2019-03-21T21:42:24.440Z,30.65
2019-03-21T21:44:51.032Z,30.95
2019-03-21T21:47:17.640Z,36.50
2019-03-21T21:49:44.214Z,32.08
2019-03-21T21:52:10.814Z,33.08
2019-03-21T21:54:37.382Z,35.52
2019-03-21T21:57:03.996Z,30.85
2019-03-21T21:59:30.594Z,33.33
2019-03-21T22:01:57.203Z,32.67
2019-03-21T22:04:23.786Z,31.25
2019-03-21T22:06:51.485Z,32.15
2019-03-21T22:09:18.067Z,33.42
2019-03-21T22:11:44.691Z,31.42
2019-03-21T22:14:11.271Z,28.15
2019-03-21T22:16:37.898Z,28.92
2019-03-21T22:19:04.472Z,27.58
2019-03-21T22:21:31.072Z,27.22
2019-03-21T22:23:57.665Z,26.15
2019-03-21T22:26:29.577Z,26.95
2019-03-21T22:28:52.547Z,25.15
2019-03-21T22:31:19.120Z,26.60
2019-03-21T22:33:45.695Z,27.20
2019-03-21T22:36:12.276Z,25.43
2019-03-21T22:38:38.856Z,25.85
2019-03-21T22:41:05.441Z,28.05
2019-03-21T22:43:32.017Z,27.55
2019-03-21T22:45:58.594Z,33.90
2019-03-21T22:48:25.174Z,32.50
2019-03-21T22:50:51.750Z,36.88
2019-03-21T22:53:18.333Z,37.67
2019-03-21T22:55:44.904Z,38.55
2019-03-21T22:58:11.536Z,34.73
2019-03-21T23:00:38.124Z,38.10
2019-03-21T23:03:04.700Z,32.23
2019-03-21T23:05:31.308Z,32.85
2019-03-21T23:07:57.891Z,34.58
2019-03-21T23:10:24.468Z,32.53
2019-03-21T23:12:51.063Z,30.35
2019-03-21T23:15:17.636Z,30.77
2019-03-21T23:17:44.221Z,30.10
2019-03-21T23:20:10.791Z,31.40
2019-03-21T23:22:37.398Z,31.42
2019-03-21T23:25:03.968Z,30.43
2019-03-21T23:27:30.595Z,30.40
2019-03-21T23:29:57.171Z,33.30
2019-03-21T23:32:23.786Z,31.40
2019-03-21T23:34:50.364Z,30.35
2019-03-21T23:37:16.999Z,30.43
2019-03-21T23:39:43.568Z,31.00
2019-03-21T23:42:10.187Z,32.42
2019-03-21T23:44:36.758Z,30.20
2019-03-21T23:47:03.339Z,30.43
2019-03-21T23:49:29.917Z,29.30
2019-03-21T23:51:56.491Z,28.10
2019-03-21T23:54:23.191Z,27.67
2019-03-21T23:56:49.774Z,27.27
2019-03-21T23:59:16.357Z,27.45
